Time;durP1;ratioP1;P1;durP2;ratioP2;P2;SDS_P1;SDS_P2;PMS_P1;PMS_P2;Temp;Humidity;BMP_temperature;BMP_pressure;BME280_temperature;BME280_humidity;BME280_pressure;Samples;Min_cycle;Max_cycle;Signal;HPM_P1;HPM_P2
2023/11/10 00:01:59;;;;;;;9.38;7.60;;;7.20;99.90;;;;;;5065565;28;20041;-70
2023/11/10 00:04:24;;;;;;;9.68;7.88;;;7.20;99.90;;;;;;5066360;28;20046;-71
2023/11/10 00:06:52;;;;;;;8.20;7.50;;;7.20;99.90;;;;;;5070927;28;20070;-70
2023/11/10 00:09:18;;;;;;;8.30;7.07;;;7.10;99.90;;;;;;5069012;28;20055;-71
2023/11/10 00:11:47;;;;;;;8.05;7.25;;;7.10;99.90;;;;;;5070183;28;20037;-71
2023/11/10 00:14:13;;;;;;;8.40;7.22;;;7.10;99.90;;;;;;5071124;28;20052;-70
2023/11/10 00:16:43;;;;;;;9.88;7.32;;;7.00;99.90;;;;;;5071110;28;20035;-70
2023/11/10 00:19:09;;;;;;;8.95;8.05;;;7.00;99.90;;;;;;5100708;28;20046;-71
2023/11/10 00:21:36;;;;;;;8.40;7.50;;;7.00;99.90;;;;;;5052313;28;20044;-70
2023/11/10 00:24:05;;;;;;;9.02;8.10;;;7.00;99.90;;;;;;5069964;28;20052;-71
2023/11/10 00:26:34;;;;;;;9.55;7.72;;;6.90;99.90;;;;;;5069254;28;20514;-70
2023/11/10 00:29:00;;;;;;;14.80;7.15;;;6.90;99.90;;;;;;5069109;28;20106;-70
2023/11/10 00:31:25;;;;;;;8.40;7.47;;;6.80;99.90;;;;;;5070944;28;20421;-71
2023/11/10 00:33:51;;;;;;;8.15;6.53;;;6.90;99.90;;;;;;5072171;28;20041;-71
2023/11/10 00:36:17;;;;;;;9.60;6.90;;;7.10;99.90;;;;;;5070687;28;20033;-71
2023/11/10 00:38:45;;;;;;;8.20;7.40;;;6.90;99.90;;;;;;5068978;28;20120;-71
2023/11/10 00:41:12;;;;;;;7.50;6.88;;;6.90;99.90;;;;;;5071315;28;20051;-70
2023/11/10 00:43:38;;;;;;;7.10;6.40;;;6.90;99.90;;;;;;5067563;28;20149;-71
2023/11/10 00:46:04;;;;;;;8.93;6.68;;;6.90;99.90;;;;;;5069149;28;20044;-71
2023/11/10 00:48:29;;;;;;;7.80;5.65;;;7.00;99.90;;;;;;5068951;28;20085;-71
2023/11/10 00:50:55;;;;;;;7.35;6.65;;;6.90;99.90;;;;;;5070512;28;20111;-71
2023/11/10 00:53:22;;;;;;;6.13;5.43;;;6.90;99.90;;;;;;5102608;27;20043;-71
2023/11/10 00:55:49;;;;;;;9.88;5.75;;;7.00;99.90;;;;;;5069309;28;20048;-71
2023/11/10 00:58:15;;;;;;;5.75;5.13;;;7.10;99.90;;;;;;5070259;28;20037;-70
2023/11/10 01:00:41;;;;;;;6.13;5.55;;;7.00;99.90;;;;;;5069540;28;20048;-71
2023/11/10 01:03:06;;;;;;;6.47;4.72;;;7.10;99.90;;;;;;5069429;28;20044;-71
2023/11/10 01:05:32;;;;;;;7.22;4.50;;;7.10;99.90;;;;;;5071538;28;20040;-71
2023/11/10 01:07:58;;;;;;;7.72;4.43;;;7.10;99.90;;;;;;5071070;28;20478;-71
2023/11/10 01:10:42;;;;;;;4.80;4.03;;;7.10;99.90;;;;;;5067877;28;20047;-71
2023/11/10 01:13:07;;;;;;;5.47;4.30;;;7.10;99.90;;;;;;5068671;28;20052;-70
2023/11/10 01:15:33;;;;;;;7.82;4.88;;;7.10;99.90;;;;;;5069506;28;20040;-71
2023/11/10 01:18:00;;;;;;;4.95;4.13;;;7.20;99.90;;;;;;5069150;28;20047;-71
2023/11/10 01:20:26;;;;;;;6.47;3.97;;;7.10;99.90;;;;;;5066323;28;20052;-71
2023/11/10 01:22:52;;;;;;;5.18;3.42;;;7.30;99.90;;;;;;5052802;28;20041;-70
2023/11/10 01:25:17;;;;;;;4.70;3.97;;;7.20;99.90;;;;;;5071628;28;20044;-70
2023/11/10 01:27:43;;;;;;;6.15;3.78;;;7.20;99.90;;;;;;5069024;28;20569;-71
2023/11/10 01:30:12;;;;;;;6.13;3.00;;;7.20;99.90;;;;;;5066427;28;20040;-71
2023/11/10 01:32:38;;;;;;;3.58;3.25;;;7.20;99.90;;;;;;5070702;28;20040;-71
2023/11/10 01:35:04;;;;;;;4.57;3.15;;;7.20;99.90;;;;;;5101041;28;20044;-70
2023/11/10 01:37:30;;;;;;;4.60;2.70;;;7.30;99.90;;;;;;5067425;28;20072;-71
2023/11/10 01:39:55;;;;;;;6.78;2.55;;;7.30;99.90;;;;;;5063681;28;20215;-71
2023/11/10 01:42:21;;;;;;;3.20;2.40;;;7.30;99.90;;;;;;5070878;28;20036;-71
2023/11/10 01:44:48;;;;;;;3.55;2.45;;;7.20;99.90;;;;;;5069535;28;20042;-71
2023/11/10 01:47:14;;;;;;;4.25;2.50;;;7.20;99.90;;;;;;5067900;28;20091;-70
2023/11/10 01:49:39;;;;;;;3.72;2.20;;;7.30;99.90;;;;;;5066676;28;20044;-71
2023/11/10 01:52:06;;;;;;;5.07;2.20;;;7.30;99.90;;;;;;5067510;28;20068;-71
2023/11/10 01:54:36;;;;;;;5.50;2.03;;;7.30;99.90;;;;;;5067493;28;20048;-71
2023/11/10 01:57:03;;;;;;;3.03;1.85;;;7.30;99.90;;;;;;5069289;28;20037;-71
2023/11/10 01:59:31;;;;;;;5.43;2.00;;;7.30;99.90;;;;;;5067977;28;20371;-70
2023/11/10 02:01:56;;;;;;;2.50;1.77;;;7.30;99.90;;;;;;5067850;28;20529;-71
2023/11/10 02:04:33;;;;;;;4.47;2.00;;;7.30;99.90;;;;;;5065746;28;20040;-71
2023/11/10 02:06:58;;;;;;;2.40;1.85;;;7.30;99.90;;;;;;5066062;28;20041;-70
2023/11/10 02:09:25;;;;;;;2.95;1.80;;;7.30;99.90;;;;;;5067616;28;20040;-70
2023/11/10 02:11:51;;;;;;;3.53;1.85;;;7.30;99.90;;;;;;5067609;28;20048;-71
2023/11/10 02:14:17;;;;;;;7.22;2.22;;;7.60;99.90;;;;;;5067514;28;20544;-71
2023/11/10 02:16:42;;;;;;;3.83;2.03;;;7.30;99.90;;;;;;5069307;28;20028;-70
2023/11/10 02:19:16;;;;;;;6.57;2.22;;;7.30;99.90;;;;;;5064777;28;20036;-70
2023/11/10 02:21:45;;;;;;;3.80;1.90;;;7.20;99.90;;;;;;5066986;28;20035;-70
2023/11/10 02:24:12;;;;;;;3.03;2.30;;;7.30;99.90;;;;;;5064892;28;20094;-71
2023/11/10 02:26:41;;;;;;;5.40;2.10;;;7.20;99.90;;;;;;5064760;28;20041;-70
2023/11/10 02:29:10;;;;;;;2.95;1.80;;;7.20;99.90;;;;;;5065511;28;20036;-71
2023/11/10 02:31:36;;;;;;;3.63;2.03;;;7.20;99.90;;;;;;5067927;28;20115;-70
2023/11/10 02:34:02;;;;;;;4.13;2.00;;;7.30;99.90;;;;;;5069103;28;20116;-70
2023/11/10 02:36:33;;;;;;;4.15;1.83;;;7.30;99.90;;;;;;5064764;28;20044;-71
2023/11/10 02:38:59;;;;;;;4.75;2.20;;;7.30;99.90;;;;;;5098335;28;20236;-71
2023/11/10 02:41:24;;;;;;;2.70;2.20;;;7.30;99.90;;;;;;5068441;28;20051;-70
2023/11/10 02:43:50;;;;;;;6.18;2.40;;;7.30;99.90;;;;;;5067563;28;20060;-71
2023/11/10 02:46:16;;;;;;;3.67;2.03;;;7.30;99.90;;;;;;5066290;28;20048;-71
2023/11/10 02:48:41;;;;;;;3.38;2.10;;;7.30;99.90;;;;;;5067616;28;20037;-71
2023/11/10 02:51:07;;;;;;;5.70;2.40;;;7.40;99.90;;;;;;5065789;28;20492;-70
2023/11/10 02:53:33;;;;;;;7.00;2.45;;;7.30;99.90;;;;;;5065609;28;20036;-71
2023/11/10 02:56:01;;;;;;;3.35;1.92;;;7.30;99.90;;;;;;5098297;28;20036;-71
2023/11/10 02:58:27;;;;;;;5.03;2.10;;;7.30;99.90;;;;;;5067457;28;20501;-70
2023/11/10 03:00:53;;;;;;;3.78;1.98;;;7.30;99.90;;;;;;5100194;28;20029;-71
2023/11/10 03:03:19;;;;;;;2.83;1.77;;;7.30;99.90;;;;;;5066998;28;20047;-71
2023/11/10 03:05:45;;;;;;;6.40;1.75;;;7.30;99.90;;;;;;5067742;28;20068;-70
2023/11/10 03:08:11;;;;;;;4.57;2.03;;;7.30;99.90;;;;;;5068106;28;20655;-71
2023/11/10 03:10:37;;;;;;;3.75;1.73;;;7.30;99.90;;;;;;5063578;28;20044;-71
2023/11/10 03:13:03;;;;;;;3.75;2.08;;;7.40;99.90;;;;;;5100324;28;20067;-70
2023/11/10 03:15:29;;;;;;;2.70;1.80;;;7.40;99.90;;;;;;5065954;28;20040;-70
2023/11/10 03:17:58;;;;;;;3.00;2.22;;;7.40;99.90;;;;;;5066596;28;20047;-70
2023/11/10 03:20:23;;;;;;;3.30;1.75;;;7.40;99.90;;;;;;5066145;28;20041;-70
2023/11/10 03:22:50;;;;;;;3.30;2.05;;;7.40;99.90;;;;;;5068316;28;20093;-71
2023/11/10 03:25:16;;;;;;;3.00;1.67;;;7.40;99.90;;;;;;5066809;28;20072;-71
2023/11/10 03:27:41;;;;;;;3.25;1.75;;;7.40;99.90;;;;;;5066784;28;20071;-71
2023/11/10 03:30:09;;;;;;;2.83;1.80;;;7.40;99.90;;;;;;5066433;28;20040;-71
2023/11/10 03:32:34;;;;;;;2.53;1.45;;;7.40;99.90;;;;;;5067246;28;20127;-71
2023/11/10 03:35:00;;;;;;;3.83;1.55;;;7.50;99.90;;;;;;5066858;28;20139;-70
2023/11/10 03:37:26;;;;;;;3.63;2.45;;;7.40;99.90;;;;;;5068201;28;20370;-71
2023/11/10 03:39:51;;;;;;;5.07;1.95;;;7.50;99.90;;;;;;5069282;28;20048;-71
2023/11/10 03:42:17;;;;;;;3.90;1.52;;;7.50;99.90;;;;;;5104075;27;20071;-71
2023/11/10 03:44:43;;;;;;;3.45;1.60;;;7.50;99.90;;;;;;5070075;28;20044;-71
2023/11/10 03:47:08;;;;;;;4.30;2.50;;;7.50;99.90;;;;;;5067377;28;20048;-71
2023/11/10 03:49:35;;;;;;;2.72;1.33;;;7.50;99.90;;;;;;5069858;28;20032;-71
2023/11/10 03:52:00;;;;;;;3.67;1.50;;;7.50;99.90;;;;;;5071205;28;20045;-70
2023/11/10 03:54:26;;;;;;;5.82;1.88;;;7.50;99.90;;;;;;5066377;28;20048;-70
2023/11/10 03:56:52;;;;;;;2.15;1.52;;;7.60;99.90;;;;;;5071876;28;20120;-71
2023/11/10 03:59:17;;;;;;;5.43;2.20;;;7.60;99.90;;;;;;5065691;28;20482;-71
2023/11/10 04:01:43;;;;;;;3.63;1.30;;;7.50;99.90;;;;;;5072695;28;20578;-71
2023/11/10 04:04:09;;;;;;;3.85;1.67;;;7.50;99.90;;;;;;5070509;28;20075;-70
2023/11/10 04:06:34;;;;;;;4.15;1.35;;;7.50;99.90;;;;;;5069675;28;20060;-71
2023/11/10 04:09:00;;;;;;;3.95;1.70;;;7.50;99.90;;;;;;5052597;28;20037;-71
2023/11/10 04:11:27;;;;;;;1.98;1.48;;;7.50;99.90;;;;;;5073379;28;20064;-71
2023/11/10 04:13:53;;;;;;;2.47;1.45;;;7.50;99.90;;;;;;5069410;28;20044;-71
2023/11/10 04:16:22;;;;;;;4.80;1.52;;;7.50;99.90;;;;;;5070359;28;20067;-70
2023/11/10 04:18:53;;;;;;;2.88;1.80;;;7.50;99.90;;;;;;5070708;28;20060;-70
2023/11/10 04:21:21;;;;;;;2.38;1.15;;;7.50;99.90;;;;;;5069840;28;20052;-70
2023/11/10 04:23:50;;;;;;;3.08;1.15;;;7.50;99.90;;;;;;5069632;28;20094;-71
2023/11/10 04:26:16;;;;;;;4.13;1.88;;;7.50;99.90;;;;;;5069598;28;20043;-71
2023/11/10 04:28:47;;;;;;;3.53;1.23;;;7.40;99.90;;;;;;5067514;28;20053;-70
2023/11/10 04:31:14;;;;;;;3.95;1.58;;;7.30;99.90;;;;;;5068076;28;20036;-70
2023/11/10 04:33:40;;;;;;;3.58;1.50;;;7.40;99.90;;;;;;5070555;28;20482;-71
2023/11/10 04:36:06;;;;;;;3.30;1.55;;;7.50;99.90;;;;;;5070154;28;20421;-70
2023/11/10 04:38:33;;;;;;;3.97;1.77;;;7.40;99.90;;;;;;5069224;28;20123;-70
2023/11/10 04:40:59;;;;;;;2.00;1.10;;;7.40;99.90;;;;;;5069404;28;20037;-70
2023/11/10 04:43:25;;;;;;;4.53;1.42;;;7.30;99.90;;;;;;5071821;28;20041;-70
2023/11/10 04:45:50;;;;;;;2.70;1.52;;;7.40;99.90;;;;;;5066749;28;20090;-70
2023/11/10 04:48:16;;;;;;;2.35;1.15;;;7.40;99.90;;;;;;5066720;28;20178;-71
2023/11/10 04:50:42;;;;;;;3.83;1.80;;;7.40;99.90;;;;;;5068862;28;20075;-71
2023/11/10 04:53:08;;;;;;;3.30;1.40;;;7.30;99.90;;;;;;5071469;28;20461;-71
2023/11/10 04:55:33;;;;;;;4.63;1.83;;;7.40;99.90;;;;;;5067967;28;20047;-71
2023/11/10 04:57:59;;;;;;;3.88;1.55;;;7.40;99.90;;;;;;5068225;28;20040;-71
2023/11/10 05:00:25;;;;;;;4.63;1.80;;;7.40;99.90;;;;;;5067125;28;20487;-71
2023/11/10 05:02:51;;;;;;;3.85;1.67;;;7.40;99.90;;;;;;5066497;28;20032;-71
2023/11/10 05:05:18;;;;;;;3.30;1.50;;;7.40;99.90;;;;;;5099068;28;20047;-71
2023/11/10 05:07:44;;;;;;;4.68;1.63;;;7.50;99.90;;;;;;5099977;28;20117;-71
2023/11/10 05:10:12;;;;;;;5.70;1.70;;;7.50;99.90;;;;;;5067729;28;20081;-71
2023/11/10 05:12:38;;;;;;;3.45;1.80;;;7.50;99.90;;;;;;5070688;28;20491;-71
2023/11/10 05:15:05;;;;;;;4.05;1.75;;;7.50;99.90;;;;;;5069685;28;20043;-71
2023/11/10 05:17:39;;;;;;;6.32;1.90;;;7.50;99.90;;;;;;5069395;28;20044;-71
2023/11/10 05:20:07;;;;;;;3.45;1.48;;;7.50;99.90;;;;;;5068583;28;20123;-71
2023/11/10 05:22:33;;;;;;;5.45;1.90;;;7.50;99.90;;;;;;5081105;28;20047;-71
2023/11/10 05:25:00;;;;;;;5.65;1.90;;;7.50;99.90;;;;;;5069519;28;20414;-71
2023/11/10 05:27:25;;;;;;;5.28;1.77;;;7.60;99.90;;;;;;5099957;28;20044;-71
2023/11/10 05:29:51;;;;;;;4.03;2.00;;;7.60;99.90;;;;;;5066935;28;20032;-71
2023/11/10 05:32:17;;;;;;;3.72;2.03;;;7.60;99.90;;;;;;5065411;28;20972;-71
2023/11/10 05:34:43;;;;;;;6.00;2.03;;;7.60;99.90;;;;;;5067934;28;21829;-71
2023/11/10 05:37:10;;;;;;;5.65;2.42;;;7.60;99.90;;;;;;5065458;28;20040;-71
2023/11/10 05:39:36;;;;;;;3.63;2.10;;;7.50;99.90;;;;;;5064524;28;20055;-71
2023/11/10 05:42:02;;;;;;;3.63;2.53;;;7.60;99.90;;;;;;5067395;28;20886;-71
2023/11/10 05:44:28;;;;;;;3.97;2.13;;;7.60;99.90;;;;;;5069518;28;20068;-71
2023/11/10 05:46:54;;;;;;;4.40;2.22;;;7.60;99.90;;;;;;5065075;28;20608;-71
2023/11/10 05:49:20;;;;;;;7.50;3.15;;;7.60;99.90;;;;;;5066798;28;20041;-71
2023/11/10 05:51:49;;;;;;;8.23;2.40;;;7.50;99.90;;;;;;5068625;28;20033;-71
2023/11/10 05:54:15;;;;;;;4.55;2.25;;;7.50;99.90;;;;;;5067518;28;20052;-71
2023/11/10 05:56:41;;;;;;;4.40;2.80;;;7.50;99.90;;;;;;5066645;28;20123;-71
2023/11/10 05:59:08;;;;;;;7.13;3.40;;;7.50;99.90;;;;;;5064401;28;20126;-70
2023/11/10 06:01:34;;;;;;;8.77;2.65;;;7.50;99.90;;;;;;5066374;28;20040;-71
2023/11/10 06:03:59;;;;;;;6.63;3.03;;;7.50;99.90;;;;;;5067484;28;20529;-71
2023/11/10 06:06:27;;;;;;;8.43;2.70;;;7.40;99.90;;;;;;5065053;28;20036;-70
2023/11/10 06:08:54;;;;;;;3.75;3.15;;;7.40;99.90;;;;;;5064466;28;20147;-70
2023/11/10 06:11:20;;;;;;;5.25;2.95;;;7.40;99.90;;;;;;5068461;28;20074;-71
2023/11/10 06:13:50;;;;;;;4.05;2.95;;;7.40;99.90;;;;;;5064566;28;20492;-71
2023/11/10 06:16:16;;;;;;;6.43;2.97;;;7.40;99.90;;;;;;5062272;28;20044;-71
2023/11/10 06:18:44;;;;;;;6.80;3.00;;;7.40;99.90;;;;;;5063267;28;20041;-71
2023/11/10 06:21:11;;;;;;;6.20;3.40;;;7.30;99.90;;;;;;5063404;28;20068;-71
2023/11/10 06:23:37;;;;;;;4.10;2.75;;;7.30;99.90;;;;;;5066443;28;20095;-71
2023/11/10 06:26:03;;;;;;;5.05;3.40;;;7.20;99.90;;;;;;5063339;28;20882;-71
2023/11/10 06:28:28;;;;;;;5.47;2.90;;;7.20;99.90;;;;;;5059345;28;20033;-71
2023/11/10 06:30:56;;;;;;;8.90;3.22;;;7.20;99.90;;;;;;5064850;28;20483;-71
2023/11/10 06:33:21;;;;;;;7.88;3.50;;;7.30;99.90;;;;;;5059269;28;20056;-71
2023/11/10 06:35:47;;;;;;;10.38;3.95;;;7.40;99.90;;;;;;5063392;28;20096;-71
2023/11/10 06:38:13;;;;;;;5.80;3.45;;;7.50;99.90;;;;;;5066782;28;20047;-71
2023/11/10 06:40:39;;;;;;;4.53;3.65;;;7.30;99.90;;;;;;5062055;28;20036;-71
2023/11/10 06:43:05;;;;;;;6.75;3.65;;;7.30;99.90;;;;;;5061751;28;20581;-71
2023/11/10 06:45:31;;;;;;;7.78;3.40;;;7.30;99.90;;;;;;5067001;28;20119;-71
2023/11/10 06:47:59;;;;;;;5.85;4.05;;;7.30;99.90;;;;;;5057377;28;20510;-71
2023/11/10 06:50:25;;;;;;;6.65;3.65;;;7.40;99.90;;;;;;5056753;28;20110;-71
2023/11/10 06:52:51;;;;;;;7.22;3.85;;;7.30;99.90;;;;;;5066439;28;20101;-71
2023/11/10 06:55:17;;;;;;;5.55;4.47;;;7.40;99.90;;;;;;5056283;28;20044;-71
2023/11/10 06:57:44;;;;;;;5.03;3.90;;;7.30;99.90;;;;;;5058255;28;20062;-71
2023/11/10 07:00:11;;;;;;;6.45;4.30;;;7.30;99.90;;;;;;5093105;28;20127;-71
2023/11/10 07:02:37;;;;;;;7.95;4.20;;;7.30;99.90;;;;;;5057684;28;20082;-71
2023/11/10 07:05:03;;;;;;;5.20;4.13;;;7.30;99.90;;;;;;5064955;28;20513;-70
2023/11/10 07:07:30;;;;;;;8.65;4.47;;;7.30;99.90;;;;;;5064512;28;20049;-70
2023/11/10 07:09:59;;;;;;;7.07;4.03;;;7.30;99.90;;;;;;5097497;28;20040;-70
2023/11/10 07:12:25;;;;;;;8.27;4.63;;;7.30;99.90;;;;;;5065616;28;20052;-70
2023/11/10 07:14:52;;;;;;;7.63;4.68;;;7.30;99.90;;;;;;5065177;28;20086;-70
2023/11/10 07:17:18;;;;;;;8.52;5.13;;;7.30;99.90;;;;;;5065067;28;20553;-70
2023/11/10 07:19:44;;;;;;;8.68;4.88;;;7.40;99.90;;;;;;5067475;28;20036;-70
2023/11/10 07:22:10;;;;;;;7.93;4.88;;;7.30;99.90;;;;;;5064217;28;20044;-70
2023/11/10 07:24:36;;;;;;;9.50;4.38;;;7.30;99.90;;;;;;5064239;28;20041;-70
2023/11/10 07:27:06;;;;;;;5.78;4.60;;;7.30;99.90;;;;;;5066826;28;20984;-70
2023/11/10 07:29:34;;;;;;;9.52;5.13;;;7.30;99.90;;;;;;5062279;28;20044;-70
2023/11/10 07:32:01;;;;;;;7.07;4.85;;;7.80;99.90;;;;;;5077291;28;20487;-70
2023/11/10 07:34:26;;;;;;;8.63;4.80;;;7.30;99.90;;;;;;5067524;28;20090;-70
2023/11/10 07:36:53;;;;;;;7.05;4.78;;;7.30;99.90;;;;;;5063407;28;20070;-70
2023/11/10 07:39:20;;;;;;;5.28;4.65;;;7.30;99.90;;;;;;5063870;28;20046;-70
2023/11/10 07:41:45;;;;;;;11.05;5.32;;;7.40;99.90;;;;;;5064964;28;20071;-70
2023/11/10 07:44:12;;;;;;;5.55;4.55;;;7.40;99.90;;;;;;5064340;28;20088;-70
2023/11/10 07:46:38;;;;;;;11.27;4.80;;;7.40;99.90;;;;;;5069322;28;20448;-70
2023/11/10 07:49:04;;;;;;;7.97;5.43;;;7.50;99.90;;;;;;5062688;28;20371;-70
2023/11/10 07:51:31;;;;;;;6.18;5.07;;;7.50;99.90;;;;;;5064297;28;20052;-71
2023/11/10 07:53:57;;;;;;;6.85;5.22;;;7.60;99.90;;;;;;5066987;28;20037;-70
2023/11/10 07:56:22;;;;;;;6.88;4.70;;;7.60;99.90;;;;;;5077579;28;20044;-70
2023/11/10 07:58:48;;;;;;;8.07;4.90;;;7.70;99.90;;;;;;5059533;28;20478;-70
2023/11/10 08:01:14;;;;;;;9.43;4.68;;;7.80;99.90;;;;;;5064483;28;20067;-70
2023/11/10 08:03:42;;;;;;;7.10;5.03;;;7.80;99.90;;;;;;5063931;28;20040;-70
2023/11/10 08:06:12;;;;;;;7.45;5.00;;;7.80;99.90;;;;;;5062938;28;20043;-70
2023/11/10 08:08:39;;;;;;;6.45;4.32;;;7.90;99.90;;;;;;5048095;28;20109;-70
2023/11/10 08:11:05;;;;;;;6.38;4.25;;;8.00;99.90;;;;;;5060950;28;20045;-70
2023/11/10 08:13:34;;;;;;;6.68;4.50;;;7.90;99.90;;;;;;5063117;28;20044;-70
2023/11/10 08:16:00;;;;;;;6.75;4.03;;;8.00;99.90;;;;;;5058662;28;20048;-70
2023/11/10 08:18:27;;;;;;;6.95;3.60;;;8.00;99.90;;;;;;5060005;28;20085;-70
2023/11/10 08:20:53;;;;;;;6.35;4.00;;;7.90;99.90;;;;;;5059474;28;20718;-70
2023/11/10 08:23:19;;;;;;;10.00;3.78;;;8.00;99.90;;;;;;5058686;28;20932;-70
2023/11/10 08:25:45;;;;;;;6.95;4.20;;;8.00;99.90;;;;;;5060507;28;20032;-70
2023/11/10 08:28:11;;;;;;;6.75;3.60;;;8.00;99.90;;;;;;5062242;28;20047;-70
2023/11/10 08:30:38;;;;;;;7.55;3.88;;;8.10;99.90;;;;;;5059249;28;20044;-70
2023/11/10 08:33:04;;;;;;;5.95;3.55;;;8.10;99.90;;;;;;5097095;28;20086;-70
2023/11/10 08:35:30;;;;;;;6.55;3.58;;;8.10;99.90;;;;;;5065203;28;20048;-70
2023/11/10 08:37:56;;;;;;;9.05;3.97;;;8.10;99.90;;;;;;5097390;28;20048;-70
2023/11/10 08:40:22;;;;;;;9.82;4.43;;;8.20;99.90;;;;;;5065356;28;20386;-71
2023/11/10 08:42:50;;;;;;;6.40;4.28;;;8.20;99.90;;;;;;5067551;28;20035;-70
2023/11/10 08:45:17;;;;;;;8.73;4.10;;;8.20;99.90;;;;;;5065588;28;20083;-70
2023/11/10 08:47:43;;;;;;;6.25;3.08;;;8.20;99.90;;;;;;5067204;28;20059;-71
2023/11/10 08:50:11;;;;;;;6.28;3.60;;;8.30;99.90;;;;;;5064646;28;20573;-70
2023/11/10 08:52:40;;;;;;;7.07;3.03;;;8.20;99.90;;;;;;5048666;28;20036;-70
2023/11/10 08:55:13;;;;;;;7.95;3.22;;;8.20;99.90;;;;;;5068991;28;20543;-70
2023/11/10 08:57:39;;;;;;;6.20;2.75;;;8.20;99.90;;;;;;5064978;28;20056;-70
2023/11/10 09:00:13;;;;;;;5.25;2.47;;;8.30;99.90;;;;;;5066299;28;20040;-70
2023/11/10 09:02:39;;;;;;;4.75;2.28;;;8.20;99.90;;;;;;5066097;28;20135;-70
2023/11/10 09:05:05;;;;;;;6.93;2.53;;;8.20;99.90;;;;;;5065650;28;20563;-70
2023/11/10 09:07:33;;;;;;;4.68;2.22;;;8.30;99.90;;;;;;5066245;28;20068;-70
2023/11/10 09:10:00;;;;;;;7.03;2.10;;;8.30;99.90;;;;;;5065397;28;20052;-70
2023/11/10 09:12:25;;;;;;;7.00;2.10;;;8.20;99.90;;;;;;5066009;28;20036;-70
2023/11/10 09:14:52;;;;;;;8.60;2.47;;;8.20;99.90;;;;;;5067463;28;20117;-70
2023/11/10 09:17:18;;;;;;;5.35;1.52;;;8.20;99.90;;;;;;5064650;28;20542;-70
2023/11/10 09:19:44;;;;;;;3.97;1.75;;;8.20;99.90;;;;;;5065666;28;20127;-70
2023/11/10 09:22:09;;;;;;;6.10;1.77;;;8.20;99.90;;;;;;5066533;28;20042;-70
2023/11/10 09:24:35;;;;;;;7.50;2.10;;;8.20;99.90;;;;;;5066135;28;20505;-70
2023/11/10 09:27:00;;;;;;;6.03;1.60;;;8.20;99.90;;;;;;5065213;28;20416;-70
2023/11/10 09:29:27;;;;;;;4.65;1.45;;;8.30;99.90;;;;;;5046644;28;20051;-70
2023/11/10 09:31:56;;;;;;;2.88;1.20;;;8.40;99.90;;;;;;5065677;28;20048;-70
2023/11/10 09:34:24;;;;;;;4.32;1.58;;;8.30;99.90;;;;;;5065341;28;20048;-70
2023/11/10 09:36:50;;;;;;;5.35;1.80;;;8.30;99.90;;;;;;5063363;28;20133;-71
2023/11/10 09:39:15;;;;;;;4.78;1.35;;;8.30;99.90;;;;;;5043665;28;20068;-70
2023/11/10 09:41:47;;;;;;;3.45;1.20;;;8.30;99.90;;;;;;5066112;28;20100;-70
2023/11/10 09:44:13;;;;;;;4.38;1.58;;;8.30;99.90;;;;;;5069153;28;20123;-70
2023/11/10 09:46:43;;;;;;;7.57;2.10;;;8.30;99.90;;;;;;5068493;28;20444;-70
2023/11/10 09:49:10;;;;;;;4.45;1.98;;;8.30;99.90;;;;;;5066601;28;20617;-70
2023/11/10 09:51:39;;;;;;;4.72;1.67;;;8.30;99.90;;;;;;5068204;28;20521;-70
2023/11/10 09:54:05;;;;;;;6.57;1.65;;;8.30;99.90;;;;;;5067172;28;20517;-71
2023/11/10 09:56:31;;;;;;;4.22;1.50;;;8.30;99.90;;;;;;5069564;28;20082;-71
2023/11/10 09:58:59;;;;;;;5.47;1.90;;;8.30;99.90;;;;;;5066084;28;20093;-71
2023/11/10 10:01:25;;;;;;;6.28;2.15;;;8.30;99.90;;;;;;5066264;28;20264;-70
2023/11/10 10:03:51;;;;;;;3.97;1.70;;;8.20;99.90;;;;;;5066128;28;20127;-70
2023/11/10 10:06:20;;;;;;;6.20;1.98;;;8.30;99.90;;;;;;5067048;28;20503;-71
2023/11/10 10:08:45;;;;;;;4.55;1.60;;;8.20;99.90;;;;;;5066682;28;20112;-71
2023/11/10 10:11:13;;;;;;;6.35;2.08;;;8.30;99.90;;;;;;5066201;28;20599;-71
2023/11/10 10:13:43;;;;;;;6.40;2.55;;;8.20;99.90;;;;;;5067863;28;20056;-70
2023/11/10 10:16:10;;;;;;;5.70;1.75;;;8.30;99.90;;;;;;5064295;28;20048;-70
2023/11/10 10:18:41;;;;;;;5.38;1.98;;;8.30;99.90;;;;;;5068650;28;20569;-72
2023/11/10 10:21:07;;;;;;;6.70;1.83;;;8.30;99.90;;;;;;5068057;28;20033;-71
2023/11/10 10:23:35;;;;;;;6.45;1.85;;;8.30;99.90;;;;;;5065230;28;20072;-71
2023/11/10 10:26:06;;;;;;;6.03;1.60;;;8.20;99.90;;;;;;5067097;28;20094;-70
2023/11/10 10:28:33;;;;;;;7.57;1.90;;;8.40;99.90;;;;;;5068135;28;20123;-70
2023/11/10 10:30:58;;;;;;;6.03;2.17;;;8.30;99.90;;;;;;5069817;28;20504;-70
2023/11/10 10:33:24;;;;;;;5.60;1.48;;;8.40;99.90;;;;;;5064917;28;20040;-70
2023/11/10 10:35:50;;;;;;;6.53;1.80;;;8.30;99.90;;;;;;5067108;28;20075;-70
2023/11/10 10:38:21;;;;;;;4.72;1.40;;;8.30;99.90;;;;;;5066042;28;20054;-70
2023/11/10 10:40:47;;;;;;;5.97;1.52;;;8.40;99.90;;;;;;5093377;28;20052;-71
2023/11/10 10:43:15;;;;;;;5.55;1.75;;;8.30;99.90;;;;;;5064343;28;20509;-70
2023/11/10 10:45:42;;;;;;;5.05;1.30;;;8.30;99.90;;;;;;5066340;28;20051;-71
2023/11/10 10:48:10;;;;;;;8.07;1.98;;;8.30;99.90;;;;;;5063808;28;20486;-70
2023/11/10 10:50:37;;;;;;;6.15;1.92;;;8.30;99.90;;;;;;5060693;28;20044;-70
2023/11/10 10:53:05;;;;;;;6.18;1.30;;;8.40;99.90;;;;;;5064666;28;20437;-71
2023/11/10 10:55:34;;;;;;;4.05;1.65;;;8.30;99.90;;;;;;5065751;28;20044;-70
2023/11/10 10:57:59;;;;;;;3.58;1.40;;;8.40;99.90;;;;;;5065638;28;20575;-70
2023/11/10 11:00:25;;;;;;;5.65;1.40;;;8.30;99.90;;;;;;5065156;28;20135;-70
2023/11/10 11:02:58;;;;;;;6.85;1.33;;;8.40;99.90;;;;;;5061311;28;20040;-70
2023/11/10 11:05:54;;;;;;;5.13;1.23;;;8.30;99.90;;;;;;5066070;28;20047;-70
2023/11/10 11:08:57;;;;;;;3.30;0.90;;;8.30;99.90;;;;;;5062013;28;20427;-70
2023/11/10 11:11:35;;;;;;;6.00;1.23;;;8.30;99.90;;;;;;5064019;28;20102;-71
2023/11/10 11:14:37;;;;;;;2.47;1.08;;;8.30;99.90;;;;;;5060757;28;20036;-71
2023/11/10 11:17:30;;;;;;;6.13;1.50;;;8.30;99.90;;;;;;5063350;28;20044;-71
2023/11/10 11:19:57;;;;;;;4.97;1.13;;;8.30;99.90;;;;;;5065338;28;20044;-71
2023/11/10 11:22:23;;;;;;;4.57;1.58;;;8.30;99.90;;;;;;5061414;28;20075;-71
2023/11/10 11:24:48;;;;;;;6.38;1.23;;;8.30;99.90;;;;;;5066135;28;20545;-71
2023/11/10 11:27:24;;;;;;;4.68;1.30;;;8.40;99.90;;;;;;5063958;28;20040;-70
2023/11/10 11:29:54;;;;;;;8.60;1.52;;;8.40;99.90;;;;;;5063442;28;20657;-70
2023/11/10 11:32:25;;;;;;;4.32;1.42;;;8.40;99.90;;;;;;5064529;28;20473;-70
2023/11/10 11:34:56;;;;;;;7.10;1.40;;;8.40;99.90;;;;;;5066557;28;20036;-70
2023/11/10 11:37:31;;;;;;;4.60;1.75;;;8.50;99.90;;;;;;5098710;28;20532;-70
2023/11/10 11:39:59;;;;;;;4.88;1.48;;;8.60;99.90;;;;;;5048206;28;20482;-70
2023/11/10 11:42:35;;;;;;;5.15;1.40;;;8.50;99.90;;;;;;5096750;28;20086;-70
2023/11/10 11:45:08;;;;;;;5.55;2.20;;;8.50;99.90;;;;;;5065348;28;20048;-70
2023/11/10 11:47:33;;;;;;;7.55;1.23;;;8.60;99.90;;;;;;5062283;28;20506;-70
2023/11/10 11:49:59;;;;;;;6.03;1.58;;;8.50;99.90;;;;;;5092548;28;20044;-71
2023/11/10 11:52:25;;;;;;;5.47;2.53;;;8.50;99.90;;;;;;5041894;28;20088;-71
2023/11/10 11:54:54;;;;;;;5.35;1.92;;;8.50;99.90;;;;;;5066471;28;20049;-70
2023/11/10 11:57:20;;;;;;;6.35;1.83;;;8.40;99.90;;;;;;5065076;28;20697;-71
2023/11/10 11:59:46;;;;;;;5.70;1.35;;;8.40;99.90;;;;;;5063070;28;20053;-71
2023/11/10 12:02:13;;;;;;;8.27;2.25;;;8.40;99.90;;;;;;5097347;28;20496;-71
2023/11/10 12:04:40;;;;;;;4.97;0.93;;;8.40;99.90;;;;;;5068267;28;20127;-71
2023/11/10 12:07:06;;;;;;;6.78;1.30;;;8.40;99.90;;;;;;5068148;28;20068;-71
2023/11/10 12:09:31;;;;;;;4.18;0.82;;;8.30;99.90;;;;;;5063264;28;20529;-71
2023/11/10 12:11:57;;;;;;;7.50;0.85;;;8.20;99.90;;;;;;5099587;27;20057;-71
2023/11/10 12:14:35;;;;;;;6.95;1.08;;;8.20;99.90;;;;;;5064987;28;20044;-71
2023/11/10 12:17:01;;;;;;;5.57;1.00;;;8.30;99.90;;;;;;5066520;28;20068;-70
2023/11/10 12:19:26;;;;;;;3.33;0.93;;;8.20;99.90;;;;;;5062609;28;20125;-71
2023/11/10 12:21:52;;;;;;;5.95;1.15;;;8.10;99.90;;;;;;5063953;28;20044;-71
2023/11/10 12:24:23;;;;;;;6.78;1.52;;;8.20;99.90;;;;;;5067046;28;20052;-71
2023/11/10 12:26:49;;;;;;;8.52;2.10;;;8.20;99.90;;;;;;5063814;28;20056;-71
2023/11/10 12:29:21;;;;;;;2.92;1.25;;;8.20;99.90;;;;;;5080006;28;20045;-70
2023/11/10 12:31:50;;;;;;;6.55;0.77;;;8.20;99.90;;;;;;5065230;28;20088;-71
2023/11/10 12:34:16;;;;;;;7.95;1.08;;;8.20;99.90;;;;;;5067779;28;20111;-71
2023/11/10 12:36:41;;;;;;;6.05;1.42;;;8.20;99.90;;;;;;5066778;28;20093;-71
2023/11/10 12:39:17;;;;;;;5.50;1.50;;;8.20;99.90;;;;;;5046757;28;20044;-71
2023/11/10 12:41:43;;;;;;;7.13;1.67;;;8.30;99.90;;;;;;5093945;28;20053;-71
2023/11/10 12:44:09;;;;;;;7.20;1.35;;;8.30;99.90;;;;;;5065143;28;20047;-71
2023/11/10 12:46:36;;;;;;;6.93;1.27;;;8.20;99.90;;;;;;5065382;28;20040;-70
2023/11/10 12:49:03;;;;;;;3.92;1.25;;;8.20;99.90;;;;;;5063733;28;20041;-71
2023/11/10 12:51:29;;;;;;;5.95;1.38;;;8.20;99.90;;;;;;5049811;28;20033;-71
2023/11/10 12:54:08;;;;;;;3.97;1.35;;;8.40;99.90;;;;;;5063793;28;20040;-70
2023/11/10 12:56:35;;;;;;;4.68;1.10;;;8.10;99.90;;;;;;5062788;28;20044;-70
2023/11/10 12:59:06;;;;;;;7.28;1.25;;;8.10;99.90;;;;;;5067317;28;20044;-70